sensor_id;sensor_type;location;lat;lon;timestamp;pressure;altitude;pressure_sealevel;temperature;humidity
74868;BME280;63419;42.262;12.210;2022-12-10T00:00:09;59665.06;;;-143.63;100.00
74868;BME280;63419;42.262;12.210;2022-12-10T00:03:41;59665.06;;;-143.63;100.00
74868;BME280;63419;42.262;12.210;2022-12-10T00:06:15;59665.06;;;-143.63;100.00
74868;BME280;63419;42.262;12.210;2022-12-10T00:08:44;59665.06;;;-143.63;100.00
74868;BME280;63419;42.262;12.210;2022-12-10T00:11:15;59665.06;;;-143.63;100.00
74868;BME280;63419;42.262;12.210;2022-12-10T00:13:44;59665.06;;;-143.63;100.00
74868;BME280;63419;42.262;12.210;2022-12-10T00:16:18;59665.06;;;-143.63;100.00
74868;BME280;63419;42.262;12.210;2022-12-10T00:18:46;59665.06;;;-143.63;100.00
74868;BME280;63419;42.262;12.210;2022-12-10T00:21:18;59665.06;;;-143.63;100.00
74868;BME280;63419;42.262;12.210;2022-12-10T00:23:47;59665.06;;;-143.63;100.00
74868;BME280;63419;42.262;12.210;2022-12-10T00:26:28;59665.06;;;-143.63;100.00
74868;BME280;63419;42.262;12.210;2022-12-10T00:28:57;59665.06;;;-143.63;100.00
74868;BME280;63419;42.262;12.210;2022-12-10T00:31:32;59665.06;;;-143.63;100.00
74868;BME280;63419;42.262;12.210;2022-12-10T00:34:05;59665.06;;;-143.63;100.00
74868;BME280;63419;42.262;12.210;2022-12-10T00:36:40;59665.06;;;-143.63;100.00
74868;BME280;63419;42.262;12.210;2022-12-10T00:39:21;59665.06;;;-143.63;100.00
74868;BME280;63419;42.262;12.210;2022-12-10T00:47:13;59665.06;;;-143.63;100.00
74868;BME280;63419;42.262;12.210;2022-12-10T00:49:40;59665.06;;;-143.63;100.00
74868;BME280;63419;42.262;12.210;2022-12-10T00:52:08;59665.06;;;-143.63;100.00
74868;BME280;63419;42.262;12.210;2022-12-10T00:54:36;59665.06;;;-143.63;100.00
74868;BME280;63419;42.262;12.210;2022-12-10T00:57:03;59665.06;;;-143.63;100.00
74868;BME280;63419;42.262;12.210;2022-12-10T00:59:30;59665.06;;;-143.63;100.00
74868;BME280;63419;42.262;12.210;2022-12-10T01:02:17;59665.06;;;-143.63;100.00
74868;BME280;63419;42.262;12.210;2022-12-10T01:07:25;59665.06;;;-143.63;100.00
74868;BME280;63419;42.262;12.210;2022-12-10T01:09:54;59665.06;;;-143.63;100.00
74868;BME280;63419;42.262;12.210;2022-12-10T01:12:21;59665.06;;;-143.63;100.00
74868;BME280;63419;42.262;12.210;2022-12-10T01:14:49;59665.06;;;-143.63;100.00
74868;BME280;63419;42.262;12.210;2022-12-10T01:17:16;59665.06;;;-143.63;100.00
74868;BME280;63419;42.262;12.210;2022-12-10T01:19:43;59665.06;;;-143.63;100.00
74868;BME280;63419;42.262;12.210;2022-12-10T01:22:10;59665.06;;;-143.63;100.00
74868;BME280;63419;42.262;12.210;2022-12-10T01:25:22;59665.06;;;-143.63;100.00
74868;BME280;63419;42.262;12.210;2022-12-10T01:27:49;59665.06;;;-143.63;100.00
74868;BME280;63419;42.262;12.210;2022-12-10T01:30:16;59665.06;;;-143.63;100.00
74868;BME280;63419;42.262;12.210;2022-12-10T01:32:44;59665.06;;;-143.63;100.00
74868;BME280;63419;42.262;12.210;2022-12-10T01:35:11;59665.06;;;-143.63;100.00
74868;BME280;63419;42.262;12.210;2022-12-10T01:37:38;59665.06;;;-143.63;100.00
74868;BME280;63419;42.262;12.210;2022-12-10T01:40:06;59665.06;;;-143.63;100.00
74868;BME280;63419;42.262;12.210;2022-12-10T01:42:34;59665.06;;;-143.63;100.00
74868;BME280;63419;42.262;12.210;2022-12-10T01:45:07;59665.06;;;-143.63;100.00
74868;BME280;63419;42.262;12.210;2022-12-10T01:47:35;59665.06;;;-143.63;100.00
74868;BME280;63419;42.262;12.210;2022-12-10T01:50:04;59665.06;;;-143.63;100.00
74868;BME280;63419;42.262;12.210;2022-12-10T01:52:32;59665.06;;;-143.63;100.00
74868;BME280;63419;42.262;12.210;2022-12-10T01:54:59;59665.06;;;-143.63;100.00
74868;BME280;63419;42.262;12.210;2022-12-10T01:57:28;59665.06;;;-143.63;100.00
74868;BME280;63419;42.262;12.210;2022-12-10T02:00:01;59665.06;;;-143.63;100.00
74868;BME280;63419;42.262;12.210;2022-12-10T02:05:41;59665.06;;;-143.63;100.00
74868;BME280;63419;42.262;12.210;2022-12-10T02:09:02;59665.06;;;-143.63;100.00
74868;BME280;63419;42.262;12.210;2022-12-10T02:14:38;59665.06;;;-143.63;100.00
74868;BME280;63419;42.262;12.210;2022-12-10T02:17:23;59665.06;;;-143.63;100.00
74868;BME280;63419;42.262;12.210;2022-12-10T02:23:21;59665.06;;;-143.63;100.00
74868;BME280;63419;42.262;12.210;2022-12-10T02:31:48;59665.06;;;-143.63;100.00
74868;BME280;63419;42.262;12.210;2022-12-10T02:34:19;59665.06;;;-143.63;100.00
74868;BME280;63419;42.262;12.210;2022-12-10T02:36:52;59665.06;;;-143.63;100.00
74868;BME280;63419;42.262;12.210;2022-12-10T02:39:28;59665.06;;;-143.63;100.00
74868;BME280;63419;42.262;12.210;2022-12-10T02:41:59;59665.06;;;-143.63;100.00
74868;BME280;63419;42.262;12.210;2022-12-10T02:44:29;59665.06;;;-143.63;100.00
74868;BME280;63419;42.262;12.210;2022-12-10T02:46:59;59665.06;;;-143.63;100.00
74868;BME280;63419;42.262;12.210;2022-12-10T02:49:30;59665.06;;;-143.63;100.00
74868;BME280;63419;42.262;12.210;2022-12-10T02:51:57;59665.06;;;-143.63;100.00
74868;BME280;63419;42.262;12.210;2022-12-10T02:54:46;59665.06;;;-143.63;100.00
74868;BME280;63419;42.262;12.210;2022-12-10T03:00:21;59665.06;;;-143.63;100.00
74868;BME280;63419;42.262;12.210;2022-12-10T03:06:08;59665.06;;;-143.63;100.00
74868;BME280;63419;42.262;12.210;2022-12-10T03:08:49;59665.06;;;-143.63;100.00
74868;BME280;63419;42.262;12.210;2022-12-10T03:11:22;59665.06;;;-143.63;100.00
74868;BME280;63419;42.262;12.210;2022-12-10T03:14:12;59665.06;;;-143.63;100.00
74868;BME280;63419;42.262;12.210;2022-12-10T03:16:51;59665.06;;;-143.63;100.00
74868;BME280;63419;42.262;12.210;2022-12-10T03:19:37;59665.06;;;-143.63;100.00
74868;BME280;63419;42.262;12.210;2022-12-10T03:22:07;59665.06;;;-143.63;100.00
74868;BME280;63419;42.262;12.210;2022-12-10T03:24:36;59665.06;;;-143.63;100.00
74868;BME280;63419;42.262;12.210;2022-12-10T03:27:06;59665.06;;;-143.63;100.00
74868;BME280;63419;42.262;12.210;2022-12-10T03:29:46;59665.06;;;-143.63;100.00
74868;BME280;63419;42.262;12.210;2022-12-10T03:32:15;59665.06;;;-143.63;100.00
74868;BME280;63419;42.262;12.210;2022-12-10T03:34:44;59665.06;;;-143.63;100.00
74868;BME280;63419;42.262;12.210;2022-12-10T03:37:13;59665.06;;;-143.63;100.00
74868;BME280;63419;42.262;12.210;2022-12-10T03:39:42;59665.06;;;-143.63;100.00
74868;BME280;63419;42.262;12.210;2022-12-10T03:42:09;59665.06;;;-143.63;100.00
74868;BME280;63419;42.262;12.210;2022-12-10T03:44:38;59665.06;;;-143.63;100.00
74868;BME280;63419;42.262;12.210;2022-12-10T03:47:12;59665.06;;;-143.63;100.00
74868;BME280;63419;42.262;12.210;2022-12-10T03:49:42;59665.06;;;-143.63;100.00
74868;BME280;63419;42.262;12.210;2022-12-10T03:52:10;59665.06;;;-143.63;100.00
74868;BME280;63419;42.262;12.210;2022-12-10T03:54:37;59665.06;;;-143.63;100.00
74868;BME280;63419;42.262;12.210;2022-12-10T03:57:05;59665.06;;;-143.63;100.00
74868;BME280;63419;42.262;12.210;2022-12-10T03:59:32;59665.06;;;-143.63;100.00
74868;BME280;63419;42.262;12.210;2022-12-10T04:01:59;59665.06;;;-143.63;100.00
74868;BME280;63419;42.262;12.210;2022-12-10T04:04:26;59665.06;;;-143.63;100.00
74868;BME280;63419;42.262;12.210;2022-12-10T04:06:54;59665.06;;;-143.63;100.00
74868;BME280;63419;42.262;12.210;2022-12-10T04:09:21;59665.06;;;-143.63;100.00
74868;BME280;63419;42.262;12.210;2022-12-10T04:11:48;59665.06;;;-143.63;100.00
74868;BME280;63419;42.262;12.210;2022-12-10T04:14:15;59665.06;;;-143.63;100.00
74868;BME280;63419;42.262;12.210;2022-12-10T04:17:01;59665.06;;;-143.63;100.00
74868;BME280;63419;42.262;12.210;2022-12-10T04:19:29;59665.06;;;-143.63;100.00
74868;BME280;63419;42.262;12.210;2022-12-10T04:21:56;59665.06;;;-143.63;100.00
74868;BME280;63419;42.262;12.210;2022-12-10T04:24:42;59665.06;;;-143.63;100.00
74868;BME280;63419;42.262;12.210;2022-12-10T04:27:37;59665.06;;;-143.63;100.00
74868;BME280;63419;42.262;12.210;2022-12-10T04:30:09;59665.06;;;-143.63;100.00
74868;BME280;63419;42.262;12.210;2022-12-10T04:32:38;59665.06;;;-143.63;100.00
74868;BME280;63419;42.262;12.210;2022-12-10T04:35:06;59665.06;;;-143.63;100.00
74868;BME280;63419;42.262;12.210;2022-12-10T04:37:33;59665.06;;;-143.63;100.00
74868;BME280;63419;42.262;12.210;2022-12-10T04:40:00;59665.06;;;-143.63;100.00
74868;BME280;63419;42.262;12.210;2022-12-10T04:42:28;59665.06;;;-143.63;100.00
74868;BME280;63419;42.262;12.210;2022-12-10T04:44:55;59665.06;;;-143.63;100.00
74868;BME280;63419;42.262;12.210;2022-12-10T04:47:22;59665.06;;;-143.63;100.00
74868;BME280;63419;42.262;12.210;2022-12-10T04:49:51;59665.06;;;-143.63;100.00
74868;BME280;63419;42.262;12.210;2022-12-10T04:52:18;59665.06;;;-143.63;100.00
74868;BME280;63419;42.262;12.210;2022-12-10T04:54:45;59665.06;;;-143.63;100.00
74868;BME280;63419;42.262;12.210;2022-12-10T04:57:13;59665.06;;;-143.63;100.00
74868;BME280;63419;42.262;12.210;2022-12-10T04:59:41;59665.06;;;-143.63;100.00
74868;BME280;63419;42.262;12.210;2022-12-10T05:02:08;59665.06;;;-143.63;100.00
74868;BME280;63419;42.262;12.210;2022-12-10T05:04:35;59665.06;;;-143.63;100.00
74868;BME280;63419;42.262;12.210;2022-12-10T05:07:03;59665.06;;;-143.63;100.00
74868;BME280;63419;42.262;12.210;2022-12-10T05:09:30;59665.06;;;-143.63;100.00
74868;BME280;63419;42.262;12.210;2022-12-10T05:11:57;59665.06;;;-143.63;100.00
74868;BME280;63419;42.262;12.210;2022-12-10T05:14:24;59665.06;;;-143.63;100.00
74868;BME280;63419;42.262;12.210;2022-12-10T05:16:52;59665.06;;;-143.63;100.00
74868;BME280;63419;42.262;12.210;2022-12-10T05:19:19;59665.06;;;-143.63;100.00
74868;BME280;63419;42.262;12.210;2022-12-10T05:21:49;59665.06;;;-143.63;100.00
74868;BME280;63419;42.262;12.210;2022-12-10T05:24:35;59665.06;;;-143.63;100.00
74868;BME280;63419;42.262;12.210;2022-12-10T05:30:38;59665.06;;;-143.63;100.00
74868;BME280;63419;42.262;12.210;2022-12-10T05:33:05;59665.06;;;-143.63;100.00
74868;BME280;63419;42.262;12.210;2022-12-10T05:35:32;59665.06;;;-143.63;100.00
74868;BME280;63419;42.262;12.210;2022-12-10T05:37:59;59665.06;;;-143.63;100.00
74868;BME280;63419;42.262;12.210;2022-12-10T05:40:27;59665.06;;;-143.63;100.00
74868;BME280;63419;42.262;12.210;2022-12-10T05:42:54;59665.06;;;-143.63;100.00
74868;BME280;63419;42.262;12.210;2022-12-10T05:45:21;59665.06;;;-143.63;100.00
74868;BME280;63419;42.262;12.210;2022-12-10T05:47:48;59665.06;;;-143.63;100.00
74868;BME280;63419;42.262;12.210;2022-12-10T05:50:16;59665.06;;;-143.63;100.00
74868;BME280;63419;42.262;12.210;2022-12-10T05:52:43;59665.06;;;-143.63;100.00
74868;BME280;63419;42.262;12.210;2022-12-10T05:55:10;59665.06;;;-143.63;100.00
74868;BME280;63419;42.262;12.210;2022-12-10T05:57:37;59665.06;;;-143.63;100.00
74868;BME280;63419;42.262;12.210;2022-12-10T06:00:05;59665.06;;;-143.63;100.00
74868;BME280;63419;42.262;12.210;2022-12-10T06:02:33;59665.06;;;-143.63;100.00
74868;BME280;63419;42.262;12.210;2022-12-10T06:05:00;59665.06;;;-143.63;100.00
74868;BME280;63419;42.262;12.210;2022-12-10T06:07:29;59665.06;;;-143.63;100.00
74868;BME280;63419;42.262;12.210;2022-12-10T06:09:57;59665.06;;;-143.63;100.00
74868;BME280;63419;42.262;12.210;2022-12-10T06:12:24;59665.06;;;-143.63;100.00
74868;BME280;63419;42.262;12.210;2022-12-10T06:14:51;59665.06;;;-143.63;100.00
74868;BME280;63419;42.262;12.210;2022-12-10T06:17:18;59665.06;;;-143.63;100.00
74868;BME280;63419;42.262;12.210;2022-12-10T06:19:45;59665.06;;;-143.63;100.00
74868;BME280;63419;42.262;12.210;2022-12-10T06:22:12;59665.06;;;-143.63;100.00
74868;BME280;63419;42.262;12.210;2022-12-10T06:24:39;59665.06;;;-143.63;100.00
74868;BME280;63419;42.262;12.210;2022-12-10T06:27:07;59665.06;;;-143.63;100.00
74868;BME280;63419;42.262;12.210;2022-12-10T06:29:34;59665.06;;;-143.63;100.00
74868;BME280;63419;42.262;12.210;2022-12-10T06:32:01;59665.06;;;-143.63;100.00
74868;BME280;63419;42.262;12.210;2022-12-10T06:34:28;59665.06;;;-143.63;100.00
74868;BME280;63419;42.262;12.210;2022-12-10T06:36:55;59665.06;;;-143.63;100.00
74868;BME280;63419;42.262;12.210;2022-12-10T06:39:22;59665.06;;;-143.63;100.00
74868;BME280;63419;42.262;12.210;2022-12-10T06:41:50;59665.06;;;-143.63;100.00
74868;BME280;63419;42.262;12.210;2022-12-10T06:44:24;59665.06;;;-143.63;100.00
74868;BME280;63419;42.262;12.210;2022-12-10T06:46:51;59665.06;;;-143.63;100.00
74868;BME280;63419;42.262;12.210;2022-12-10T06:49:18;59665.06;;;-143.63;100.00
74868;BME280;63419;42.262;12.210;2022-12-10T06:51:47;59665.06;;;-143.63;100.00
74868;BME280;63419;42.262;12.210;2022-12-10T06:54:14;59665.06;;;-143.63;100.00
74868;BME280;63419;42.262;12.210;2022-12-10T06:56:42;59665.06;;;-143.63;100.00
74868;BME280;63419;42.262;12.210;2022-12-10T06:59:09;59665.06;;;-143.63;100.00
74868;BME280;63419;42.262;12.210;2022-12-10T07:01:38;59665.06;;;-143.63;100.00
74868;BME280;63419;42.262;12.210;2022-12-10T07:04:06;59665.06;;;-143.63;100.00
74868;BME280;63419;42.262;12.210;2022-12-10T07:06:33;59665.06;;;-143.63;100.00
74868;BME280;63419;42.262;12.210;2022-12-10T07:09:00;59665.06;;;-143.63;100.00
74868;BME280;63419;42.262;12.210;2022-12-10T07:11:27;59665.06;;;-143.63;100.00
74868;BME280;63419;42.262;12.210;2022-12-10T07:13:54;59665.06;;;-143.63;100.00
74868;BME280;63419;42.262;12.210;2022-12-10T07:16:28;59665.06;;;-143.63;100.00
74868;BME280;63419;42.262;12.210;2022-12-10T07:18:58;59665.06;;;-143.63;100.00
74868;BME280;63419;42.262;12.210;2022-12-10T07:21:32;59665.06;;;-143.63;100.00
74868;BME280;63419;42.262;12.210;2022-12-10T07:24:19;59665.06;;;-143.63;100.00
74868;BME280;63419;42.262;12.210;2022-12-10T07:26:47;59665.06;;;-143.63;100.00
74868;BME280;63419;42.262;12.210;2022-12-10T07:29:19;59665.06;;;-143.63;100.00
74868;BME280;63419;42.262;12.210;2022-12-10T07:31:48;59665.06;;;-143.63;100.00
74868;BME280;63419;42.262;12.210;2022-12-10T07:34:16;59665.06;;;-143.63;100.00
74868;BME280;63419;42.262;12.210;2022-12-10T07:36:43;59665.06;;;-143.63;100.00
74868;BME280;63419;42.262;12.210;2022-12-10T07:39:12;59665.06;;;-143.63;100.00
74868;BME280;63419;42.262;12.210;2022-12-10T07:41:47;59665.06;;;-143.63;100.00
74868;BME280;63419;42.262;12.210;2022-12-10T07:44:17;59665.06;;;-143.63;100.00
74868;BME280;63419;42.262;12.210;2022-12-10T07:46:47;59665.06;;;-143.63;100.00
74868;BME280;63419;42.262;12.210;2022-12-10T07:49:16;59665.06;;;-143.63;100.00
74868;BME280;63419;42.262;12.210;2022-12-10T07:51:48;59665.06;;;-143.63;100.00
74868;BME280;63419;42.262;12.210;2022-12-10T07:54:17;59665.06;;;-143.63;100.00
74868;BME280;63419;42.262;12.210;2022-12-10T07:56:45;59665.06;;;-143.63;100.00
74868;BME280;63419;42.262;12.210;2022-12-10T07:59:12;59665.06;;;-143.63;100.00
74868;BME280;63419;42.262;12.210;2022-12-10T08:01:40;59665.06;;;-143.63;100.00
74868;BME280;63419;42.262;12.210;2022-12-10T08:04:08;59665.06;;;-143.63;100.00
74868;BME280;63419;42.262;12.210;2022-12-10T08:06:35;59665.06;;;-143.63;100.00
74868;BME280;63419;42.262;12.210;2022-12-10T08:09:03;59665.06;;;-143.63;100.00
74868;BME280;63419;42.262;12.210;2022-12-10T08:11:30;59665.06;;;-143.63;100.00
74868;BME280;63419;42.262;12.210;2022-12-10T08:13:57;59665.06;;;-143.63;100.00
74868;BME280;63419;42.262;12.210;2022-12-10T08:16:28;59665.06;;;-143.63;100.00
74868;BME280;63419;42.262;12.210;2022-12-10T08:19:00;59665.06;;;-143.63;100.00
74868;BME280;63419;42.262;12.210;2022-12-10T08:21:31;59665.06;;;-143.63;100.00
74868;BME280;63419;42.262;12.210;2022-12-10T08:23:59;59665.06;;;-143.63;100.00
74868;BME280;63419;42.262;12.210;2022-12-10T08:26:30;59665.06;;;-143.63;100.00
74868;BME280;63419;42.262;12.210;2022-12-10T08:28:59;59665.06;;;-143.63;100.00
74868;BME280;63419;42.262;12.210;2022-12-10T08:31:28;59665.06;;;-143.63;100.00
74868;BME280;63419;42.262;12.210;2022-12-10T08:34:04;59665.06;;;-143.63;100.00
74868;BME280;63419;42.262;12.210;2022-12-10T08:36:32;59665.06;;;-143.63;100.00
74868;BME280;63419;42.262;12.210;2022-12-10T08:38:59;59665.06;;;-143.63;100.00
74868;BME280;63419;42.262;12.210;2022-12-10T08:41:26;59665.06;;;-143.63;100.00
74868;BME280;63419;42.262;12.210;2022-12-10T08:43:53;59665.06;;;-143.63;100.00
74868;BME280;63419;42.262;12.210;2022-12-10T08:46:22;59665.06;;;-143.63;100.00
74868;BME280;63419;42.262;12.210;2022-12-10T08:48:50;59665.06;;;-143.63;100.00
74868;BME280;63419;42.262;12.210;2022-12-10T08:51:20;59665.06;;;-143.63;100.00
74868;BME280;63419;42.262;12.210;2022-12-10T08:53:47;59665.06;;;-143.63;100.00
74868;BME280;63419;42.262;12.210;2022-12-10T08:56:15;59665.06;;;-143.63;100.00
74868;BME280;63419;42.262;12.210;2022-12-10T08:58:42;59665.06;;;-143.63;100.00
74868;BME280;63419;42.262;12.210;2022-12-10T09:01:14;59665.06;;;-143.63;100.00
74868;BME280;63419;42.262;12.210;2022-12-10T09:03:42;59665.06;;;-143.63;100.00
74868;BME280;63419;42.262;12.210;2022-12-10T09:06:13;59665.06;;;-143.63;100.00
74868;BME280;63419;42.262;12.210;2022-12-10T09:08:41;59665.06;;;-143.63;100.00
74868;BME280;63419;42.262;12.210;2022-12-10T09:11:23;59665.06;;;-143.63;100.00
74868;BME280;63419;42.262;12.210;2022-12-10T09:13:52;59665.06;;;-143.63;100.00
74868;BME280;63419;42.262;12.210;2022-12-10T09:16:19;59665.06;;;-143.63;100.00
74868;BME280;63419;42.262;12.210;2022-12-10T09:18:47;59665.06;;;-143.63;100.00
74868;BME280;63419;42.262;12.210;2022-12-10T09:21:16;59665.06;;;-143.63;100.00
74868;BME280;63419;42.262;12.210;2022-12-10T09:23:44;59665.06;;;-143.63;100.00
74868;BME280;63419;42.262;12.210;2022-12-10T09:26:15;59665.06;;;-143.63;100.00
74868;BME280;63419;42.262;12.210;2022-12-10T09:28:44;59665.06;;;-143.63;100.00
74868;BME280;63419;42.262;12.210;2022-12-10T09:31:13;59665.06;;;-143.63;100.00
74868;BME280;63419;42.262;12.210;2022-12-10T09:33:49;59665.06;;;-143.63;100.00
74868;BME280;63419;42.262;12.210;2022-12-10T09:36:18;59665.06;;;-143.63;100.00
74868;BME280;63419;42.262;12.210;2022-12-10T09:38:47;59665.06;;;-143.63;100.00
74868;BME280;63419;42.262;12.210;2022-12-10T09:41:40;59665.06;;;-143.63;100.00
74868;BME280;63419;42.262;12.210;2022-12-10T09:44:51;59665.06;;;-143.63;100.00
74868;BME280;63419;42.262;12.210;2022-12-10T09:47:31;59665.06;;;-143.63;100.00
74868;BME280;63419;42.262;12.210;2022-12-10T09:50:30;59665.06;;;-143.63;100.00
74868;BME280;63419;42.262;12.210;2022-12-10T09:53:02;59665.06;;;-143.63;100.00
74868;BME280;63419;42.262;12.210;2022-12-10T09:55:43;59665.06;;;-143.63;100.00
74868;BME280;63419;42.262;12.210;2022-12-10T09:58:26;59665.06;;;-143.63;100.00
74868;BME280;63419;42.262;12.210;2022-12-10T10:01:04;59665.06;;;-143.63;100.00
74868;BME280;63419;42.262;12.210;2022-12-10T10:03:38;59665.06;;;-143.63;100.00
74868;BME280;63419;42.262;12.210;2022-12-10T10:06:13;59665.06;;;-143.63;100.00
74868;BME280;63419;42.262;12.210;2022-12-10T10:08:46;59665.06;;;-143.63;100.00
74868;BME280;63419;42.262;12.210;2022-12-10T10:11:31;59665.06;;;-143.63;100.00
74868;BME280;63419;42.262;12.210;2022-12-10T10:14:26;59665.06;;;-143.63;100.00
74868;BME280;63419;42.262;12.210;2022-12-10T10:17:07;59665.06;;;-143.63;100.00
74868;BME280;63419;42.262;12.210;2022-12-10T10:19:36;59665.06;;;-143.63;100.00
74868;BME280;63419;42.262;12.210;2022-12-10T10:22:06;59665.06;;;-143.63;100.00
74868;BME280;63419;42.262;12.210;2022-12-10T10:24:35;59665.06;;;-143.63;100.00
74868;BME280;63419;42.262;12.210;2022-12-10T10:27:16;59665.06;;;-143.63;100.00
74868;BME280;63419;42.262;12.210;2022-12-10T10:29:47;59665.06;;;-143.63;100.00
74868;BME280;63419;42.262;12.210;2022-12-10T10:35:05;59665.06;;;-143.63;100.00
74868;BME280;63419;42.262;12.210;2022-12-10T10:40:03;59665.06;;;-143.63;100.00
74868;BME280;63419;42.262;12.210;2022-12-10T10:42:41;59665.06;;;-143.63;100.00
74868;BME280;63419;42.262;12.210;2022-12-10T10:45:37;59665.06;;;-143.63;100.00
74868;BME280;63419;42.262;12.210;2022-12-10T10:48:24;59665.06;;;-143.63;100.00
74868;BME280;63419;42.262;12.210;2022-12-10T10:51:13;59665.06;;;-143.63;100.00
74868;BME280;63419;42.262;12.210;2022-12-10T10:53:51;59665.06;;;-143.63;100.00
74868;BME280;63419;42.262;12.210;2022-12-10T10:59:07;59665.06;;;-143.63;100.00
74868;BME280;63419;42.262;12.210;2022-12-10T11:01:53;59665.06;;;-143.63;100.00
74868;BME280;63419;42.262;12.210;2022-12-10T11:07:05;59665.06;;;-143.63;100.00
74868;BME280;63419;42.262;12.210;2022-12-10T11:09:40;59665.06;;;-143.63;100.00
74868;BME280;63419;42.262;12.210;2022-12-10T11:12:35;59665.06;;;-143.63;100.00
74868;BME280;63419;42.262;12.210;2022-12-10T11:17:53;59665.06;;;-143.63;100.00
74868;BME280;63419;42.262;12.210;2022-12-10T11:20:32;59665.06;;;-143.63;100.00
74868;BME280;63419;42.262;12.210;2022-12-10T11:23:12;59665.06;;;-143.63;100.00
74868;BME280;63419;42.262;12.210;2022-12-10T11:26:49;59665.06;;;-143.63;100.00
74868;BME280;63419;42.262;12.210;2022-12-10T11:38:24;59665.06;;;-143.63;100.00
74868;BME280;63419;42.262;12.210;2022-12-10T11:50:18;59665.06;;;-143.63;100.00
74868;BME280;63419;42.262;12.210;2022-12-10T11:53:00;59665.06;;;-143.63;100.00
74868;BME280;63419;42.262;12.210;2022-12-10T11:59:12;59665.06;;;-143.63;100.00
74868;BME280;63419;42.262;12.210;2022-12-10T12:11:21;59665.06;;;-143.63;100.00
74868;BME280;63419;42.262;12.210;2022-12-10T12:14:14;59665.06;;;-143.63;100.00
74868;BME280;63419;42.262;12.210;2022-12-10T12:16:55;59665.06;;;-143.63;100.00
74868;BME280;63419;42.262;12.210;2022-12-10T12:19:52;59665.06;;;-143.63;100.00
74868;BME280;63419;42.262;12.210;2022-12-10T12:22:27;59665.06;;;-143.63;100.00
74868;BME280;63419;42.262;12.210;2022-12-10T12:27:43;59665.06;;;-143.63;100.00
74868;BME280;63419;42.262;12.210;2022-12-10T12:30:20;59665.06;;;-143.63;100.00
74868;BME280;63419;42.262;12.210;2022-12-10T12:33:16;59665.06;;;-143.63;100.00
74868;BME280;63419;42.262;12.210;2022-12-10T12:36:14;59665.06;;;-143.63;100.00
74868;BME280;63419;42.262;12.210;2022-12-10T12:45:13;59665.06;;;-143.63;100.00
74868;BME280;63419;42.262;12.210;2022-12-10T12:53:13;59665.06;;;-143.63;100.00
74868;BME280;63419;42.262;12.210;2022-12-10T12:59:11;59665.06;;;-143.63;100.00
74868;BME280;63419;42.262;12.210;2022-12-10T13:01:51;59665.06;;;-143.63;100.00
74868;BME280;63419;42.262;12.210;2022-12-10T13:04:21;59665.06;;;-143.63;100.00
74868;BME280;63419;42.262;12.210;2022-12-10T13:10:08;59665.06;;;-143.63;100.00
74868;BME280;63419;42.262;12.210;2022-12-10T13:13:05;59665.06;;;-143.63;100.00
74868;BME280;63419;42.262;12.210;2022-12-10T13:15:38;59665.06;;;-143.63;100.00
74868;BME280;63419;42.262;12.210;2022-12-10T13:21:25;59665.06;;;-143.63;100.00
74868;BME280;63419;42.262;12.210;2022-12-10T13:24:06;59665.06;;;-143.63;100.00
74868;BME280;63419;42.262;12.210;2022-12-10T13:26:33;95265.44;;;14.56;100.00
74868;BME280;63419;42.262;12.210;2022-12-10T13:29:26;95248.63;;;14.52;100.00
74868;BME280;63419;42.262;12.210;2022-12-10T13:37:56;95253.16;;;18.98;100.00
74868;BME280;63419;42.262;12.210;2022-12-10T13:49:28;95290.28;;;17.74;100.00
74868;BME280;63419;42.262;12.210;2022-12-10T13:52:21;95292.19;;;18.60;100.00
74868;BME280;63419;42.262;12.210;2022-12-10T13:57:53;95301.41;;;18.42;100.00
74868;BME280;63419;42.262;12.210;2022-12-10T14:00:53;95312.84;;;20.05;100.00
74868;BME280;63419;42.262;12.210;2022-12-10T14:06:37;95320.53;;;19.55;100.00
74868;BME280;63419;42.262;12.210;2022-12-10T14:09:15;95331.53;;;19.12;100.00
74868;BME280;63419;42.262;12.210;2022-12-10T14:12:01;95330.03;;;17.34;100.00
74868;BME280;63419;42.262;12.210;2022-12-10T14:14:39;95332.75;;;18.36;100.00
74868;BME280;63419;42.262;12.210;2022-12-10T14:17:15;95351.69;;;15.85;100.00
74868;BME280;63419;42.262;12.210;2022-12-10T14:19:46;95358.44;;;15.50;100.00
74868;BME280;63419;42.262;12.210;2022-12-10T14:22:44;95362.19;;;15.02;100.00
74868;BME280;63419;42.262;12.210;2022-12-10T14:25:22;95350.09;;;15.54;100.00
74868;BME280;63419;42.262;12.210;2022-12-10T14:27:52;95353.50;;;14.95;100.00
74868;BME280;63419;42.262;12.210;2022-12-10T14:30:23;95340.06;;;14.92;100.00
74868;BME280;63419;42.262;12.210;2022-12-10T14:32:55;95337.28;;;14.40;100.00
74868;BME280;63419;42.262;12.210;2022-12-10T14:35:26;95332.88;;;14.41;100.00
74868;BME280;63419;42.262;12.210;2022-12-10T14:37:58;95331.00;;;14.73;100.00
74868;BME280;63419;42.262;12.210;2022-12-10T14:40:44;95325.09;;;15.53;100.00
74868;BME280;63419;42.262;12.210;2022-12-10T14:43:21;95323.53;;;15.59;100.00
74868;BME280;63419;42.262;12.210;2022-12-10T14:46:02;95334.25;;;14.90;100.00
74868;BME280;63419;42.262;12.210;2022-12-10T14:48:39;95331.66;;;14.90;100.00
74868;BME280;63419;42.262;12.210;2022-12-10T14:51:17;95322.59;;;14.71;100.00
74868;BME280;63419;42.262;12.210;2022-12-10T14:53:49;95318.38;;;14.84;100.00
74868;BME280;63419;42.262;12.210;2022-12-10T14:56:32;95321.16;;;14.83;100.00